Vanetia, Texas
Current Conditions -  °F | °C
As of 11:15 AM on Sunday 21 Dec 2014 (Local Time) from KLHB Reporting Station
Overcast Overcast  
Wind Chill: 51°   Ceiling: 1000
Heat Index: 51°   Visibility: 10mi
Dew Point: 48°   Wind: 6mph
Humidity: 90%   Direction: 150°SSE
Pressure: 30.12"   Gusts: NA
Location:  31.2206°N, 96.2362°W
Report Text: KLHB 211715Z AUTO 15005KT 10SM BKN010 OVC019 10/09 A3012 RMK AO2 T01030088
Loading
Personal Weather Stations






























Interactive Weather Map New forecast layout! Learn more

10-Day Weather Forecast

Advertisements
Track Severe Weather on mobile